Algiers, Indiana
Current Conditions -  °F | °C
As of 10:55 PM on Friday 28 Nov 2014 (Local Time) from KDCY Reporting Station
Clear Clear  
Wind Chill: 27°   Ceiling: Unl
Heat Index: 34°   Visibility: 10mi
Dew Point: 28°   Wind: 8mph
Humidity: 78%   Direction: 170°S
Pressure: 30.01"   Gusts: NA
Location:  38.4723°N, 87.3105°W
Report Text: KDCY 290455Z AUTO 17007KT 10SM CLR 01/M02 A3001 RMK AO2 T00121022
Loading
Personal Weather Stations






























Interactive Weather Map New forecast layout! Learn more

10-Day Weather Forecast

Advertisements
Track Severe Weather on mobile